Hovedside
METAR-TAF:

METAR-TAF

Lufthavner :

Southampton, England

breddegrad: 50-54N, lengdegrad: 001-24W, høyde over havet: 9 m

Gjeldene værobservasjon

Denne rapporten ble laget for 25 minutter siden, klokken 13:50 UTC
Vind 3 kt fra skiftende retning
Temperatur 7°C
Luftfuktighet 81%
Trykk 1030 hPa
Sikt 10 km eller mer
Brutte skyer i en høyde av 1500 ft

METAR: EGHI 231350Z VRB03KT 9999 BKN015 07/04 Q1030

Tid: 14:15 (14:15 UTC)

Varsel

Denne rapporten ble laget for 3 timer og 14 minutter siden, klokken 11:01 UTC
Varsel gyldig fra 23. klokken 12 UTC til 23. klokken 21 UTC
Vind 4 kt fra Øst-nordøst
Sikt 10 km eller mer
Spredte skyer i en høyde av 1500 ft
Sannsynlighet 40% :
Midlertidig
fra 23. klokken 12 UTC til 23. klokken 21 UTC
Sikt: 8000 m
Brutte skyer i en høyde av 1200 ft

TAF: EGHI 231101Z 2312/2321 06004KT 9999 SCT015 PROB40 TEMPO 2312/2321 8000 BKN012

Værobservasjoner og værvarsel for over 4000 flyplasser (METAR- og TAF-rapporter).

Tilgjengelige stasjoner er representert av de røde og gule prikkene på kartet.

Hold musepekeren over prikken for å se navnet på stasjonen.

Klikk så for å se værobservasjoner og -varsler.

For å forandre kartet kan du klikke på den grønne knappen med svart kryss for å zoome inn, på den grønne knappen med strek for å zoome ut, eller på de grønne pilene for å se tilstøtende kart.


METAR-TAF: